createdAt,value
2022-12-16T00:00:12.249Z,0
2022-12-16T00:01:13.361Z,0
2022-12-16T00:02:15.541Z,0
2022-12-16T00:03:12.595Z,0
2022-12-16T00:04:13.043Z,0
2022-12-16T00:05:12.492Z,0
2022-12-16T00:06:12.744Z,0
2022-12-16T00:07:12.261Z,0
2022-12-16T00:08:15.387Z,0
2022-12-16T00:09:13.019Z,0
2022-12-16T00:10:12.857Z,0
2022-12-16T00:11:12.945Z,0
2022-12-16T00:12:12.739Z,0
2022-12-16T00:13:17.319Z,0
2022-12-16T00:14:12.626Z,0
2022-12-16T00:15:12.785Z,0
2022-12-16T00:16:13.085Z,0
2022-12-16T00:17:12.875Z,0
2022-12-16T00:18:13.043Z,0
2022-12-16T00:19:13.085Z,0
2022-12-16T00:20:12.599Z,0
2022-12-16T00:21:12.805Z,0
2022-12-16T00:22:12.902Z,0
2022-12-16T00:23:12.676Z,0
2022-12-16T00:24:15.451Z,0
2022-12-16T00:25:12.764Z,0
2022-12-16T00:26:12.769Z,0
2022-12-16T00:27:12.773Z,0
2022-12-16T00:28:12.825Z,0
2022-12-16T00:29:12.309Z,0
2022-12-16T00:30:12.282Z,0
2022-12-16T00:31:12.736Z,0
2022-12-16T00:32:12.641Z,0
2022-12-16T00:33:12.828Z,0
2022-12-16T00:34:12.751Z,0
2022-12-16T00:35:12.307Z,0
2022-12-16T00:36:12.729Z,0
2022-12-16T00:37:12.764Z,0
2022-12-16T00:38:12.498Z,0
2022-12-16T00:39:12.864Z,0
2022-12-16T00:40:12.845Z,0
2022-12-16T00:41:12.747Z,0
2022-12-16T00:42:15.547Z,0
2022-12-16T00:43:12.937Z,0
2022-12-16T00:44:15.253Z,0
2022-12-16T00:45:12.479Z,0
2022-12-16T00:46:13.114Z,0
2022-12-16T00:47:12.325Z,0
2022-12-16T00:48:12.301Z,0
2022-12-16T00:49:12.325Z,0
2022-12-16T00:50:12.322Z,0
2022-12-16T00:51:15.792Z,0
2022-12-16T00:52:12.307Z,0
2022-12-16T00:53:12.923Z,0
2022-12-16T00:54:12.514Z,0
2022-12-16T00:55:12.324Z,0
2022-12-16T00:56:15.213Z,0
2022-12-16T00:57:12.807Z,0
2022-12-16T00:58:12.321Z,0
2022-12-16T00:59:12.813Z,0
2022-12-16T01:00:12.169Z,0
2022-12-16T01:01:12.762Z,0
2022-12-16T01:02:17.118Z,0
2022-12-16T01:03:19.588Z,0
2022-12-16T01:04:12.915Z,0
2022-12-16T01:05:12.726Z,0
2022-12-16T01:06:12.985Z,0
2022-12-16T01:07:15.416Z,0
2022-12-16T01:08:12.341Z,0
2022-12-16T01:09:12.763Z,0
2022-12-16T01:10:13.104Z,0
2022-12-16T01:11:13.088Z,0
2022-12-16T01:12:12.340Z,0
2022-12-16T01:13:12.851Z,0
2022-12-16T01:14:12.632Z,0
2022-12-16T01:15:12.369Z,0
2022-12-16T01:16:12.930Z,0
2022-12-16T01:17:12.186Z,0
2022-12-16T01:18:15.396Z,0
2022-12-16T01:19:12.380Z,0
2022-12-16T01:20:12.341Z,0
2022-12-16T01:21:13.032Z,0
2022-12-16T01:22:12.922Z,0
2022-12-16T01:23:12.917Z,0
2022-12-16T01:24:13.101Z,0
2022-12-16T01:25:12.975Z,0
2022-12-16T01:26:12.713Z,0
2022-12-16T01:27:12.890Z,0
2022-12-16T01:28:12.898Z,0
2022-12-16T01:29:15.401Z,0
2022-12-16T01:30:12.373Z,0
2022-12-16T01:31:12.485Z,0
2022-12-16T01:32:13.165Z,0
2022-12-16T01:33:13.117Z,0
2022-12-16T01:34:12.888Z,0
2022-12-16T01:35:58.423Z,0
2022-12-16T01:36:12.378Z,0
2022-12-16T01:37:12.917Z,0
2022-12-16T01:38:12.745Z,0
2022-12-16T01:39:13.068Z,0
2022-12-16T01:40:14.010Z,0
2022-12-16T01:41:12.885Z,0
2022-12-16T01:42:12.983Z,0
2022-12-16T01:43:12.785Z,0
2022-12-16T01:44:12.988Z,0
2022-12-16T01:45:15.519Z,0
2022-12-16T01:46:13.275Z,0
2022-12-16T01:47:12.859Z,0
2022-12-16T01:48:13.010Z,0
2022-12-16T01:49:12.424Z,0
2022-12-16T01:50:12.586Z,0
2022-12-16T01:51:16.124Z,0
2022-12-16T01:52:13.112Z,0
2022-12-16T01:53:12.406Z,0
2022-12-16T01:54:12.717Z,0
2022-12-16T01:55:12.403Z,0
2022-12-16T01:56:15.295Z,0
2022-12-16T01:57:12.439Z,0
2022-12-16T01:58:12.982Z,0
2022-12-16T01:59:13.086Z,0
2022-12-16T02:00:12.576Z,0
2022-12-16T02:01:12.835Z,0
2022-12-16T02:02:16.528Z,0
2022-12-16T02:03:13.352Z,0
2022-12-16T02:04:12.523Z,0
2022-12-16T02:05:12.758Z,0
2022-12-16T02:06:13.045Z,0
2022-12-16T02:07:15.240Z,0
2022-12-16T02:08:12.631Z,0
2022-12-16T02:09:12.954Z,0
2022-12-16T02:10:12.752Z,0
2022-12-16T02:11:12.430Z,0
2022-12-16T02:12:13.066Z,0
2022-12-16T02:13:15.972Z,0
2022-12-16T02:14:12.498Z,0
2022-12-16T02:15:12.461Z,0
2022-12-16T02:16:19.529Z,0
2022-12-16T02:17:13.377Z,0
2022-12-16T02:18:15.452Z,0
2022-12-16T02:19:12.453Z,0
2022-12-16T02:20:12.446Z,0
2022-12-16T02:21:12.930Z,0
2022-12-16T02:22:12.988Z,0
2022-12-16T02:23:12.911Z,0
2022-12-16T02:24:16.037Z,0
2022-12-16T02:25:12.452Z,0
2022-12-16T02:26:13.073Z,0
2022-12-16T02:27:12.464Z,0
2022-12-16T02:28:13.135Z,0
2022-12-16T02:29:15.665Z,0
2022-12-16T02:30:12.541Z,0
2022-12-16T02:31:12.858Z,0
2022-12-16T02:32:12.679Z,0
2022-12-16T02:33:12.958Z,0
2022-12-16T02:34:14.035Z,0
2022-12-16T02:35:15.557Z,0
2022-12-16T02:36:13.095Z,0
2022-12-16T02:37:13.058Z,0
2022-12-16T02:38:12.853Z,0
2022-12-16T02:39:12.467Z,0
2022-12-16T02:40:15.269Z,0
2022-12-16T02:41:13.019Z,0
2022-12-16T02:42:12.477Z,0
2022-12-16T02:43:13.138Z,0
2022-12-16T02:44:13.167Z,0
2022-12-16T02:45:12.579Z,0
2022-12-16T02:46:13.194Z,0
2022-12-16T02:47:12.544Z,0
2022-12-16T02:48:13.197Z,0
2022-12-16T02:49:12.489Z,0
2022-12-16T02:50:16.531Z,0
2022-12-16T02:51:15.276Z,0
2022-12-16T02:52:12.495Z,0
2022-12-16T02:53:12.495Z,0
2022-12-16T02:54:12.516Z,0
2022-12-16T02:55:12.567Z,0
2022-12-16T02:56:12.503Z,0
2022-12-16T02:57:12.514Z,0
2022-12-16T02:58:12.521Z,0
2022-12-16T02:59:12.495Z,0
2022-12-16T03:00:12.534Z,0
2022-12-16T03:01:12.894Z,0
2022-12-16T03:02:13.567Z,0
2022-12-16T03:03:13.087Z,0
2022-12-16T03:04:12.538Z,0
2022-12-16T03:05:12.573Z,0
2022-12-16T03:06:12.524Z,0
2022-12-16T03:07:12.520Z,0
2022-12-16T03:08:12.510Z,0
2022-12-16T03:09:12.517Z,0
2022-12-16T03:10:12.561Z,0
2022-12-16T03:11:12.544Z,0
2022-12-16T03:12:12.512Z,0
2022-12-16T03:13:12.532Z,0
2022-12-16T03:14:12.713Z,0
2022-12-16T03:15:12.594Z,0
2022-12-16T03:16:12.624Z,0
2022-12-16T03:17:12.893Z,0
2022-12-16T03:18:12.557Z,0
2022-12-16T03:19:13.048Z,0
2022-12-16T03:20:12.575Z,0
2022-12-16T03:21:12.363Z,0
2022-12-16T03:22:12.545Z,0
2022-12-16T03:23:15.549Z,0
2022-12-16T03:24:12.563Z,0
2022-12-16T03:25:12.586Z,0
2022-12-16T03:26:12.613Z,0
2022-12-16T03:27:12.549Z,0
2022-12-16T03:28:12.578Z,0
2022-12-16T03:29:12.555Z,0
2022-12-16T03:30:12.580Z,0
2022-12-16T03:31:12.869Z,0
2022-12-16T03:32:12.589Z,0
2022-12-16T03:33:12.939Z,0
2022-12-16T03:34:15.601Z,0
2022-12-16T03:35:12.676Z,0
2022-12-16T03:36:12.573Z,0
2022-12-16T03:37:12.547Z,0
2022-12-16T03:38:12.573Z,0
2022-12-16T03:39:12.574Z,0
2022-12-16T03:40:12.609Z,0
2022-12-16T03:41:12.580Z,0
2022-12-16T03:42:12.597Z,0
2022-12-16T03:43:12.645Z,0
2022-12-16T03:44:12.610Z,0
2022-12-16T03:45:15.438Z,0
2022-12-16T03:46:12.982Z,0
2022-12-16T03:47:13.521Z,0
2022-12-16T03:48:12.580Z,0
2022-12-16T03:49:12.657Z,0
2022-12-16T03:50:12.625Z,0
2022-12-16T03:51:12.643Z,0
2022-12-16T03:52:12.573Z,0
2022-12-16T03:53:13.064Z,0
2022-12-16T03:54:12.573Z,0
2022-12-16T03:55:12.683Z,0
2022-12-16T03:56:15.694Z,0
2022-12-16T03:57:23.080Z,0
2022-12-16T03:59:12.613Z,0
2022-12-16T04:00:12.622Z,0
2022-12-16T04:01:12.916Z,0
2022-12-16T04:02:13.640Z,0
2022-12-16T04:03:13.803Z,0
2022-12-16T04:04:12.677Z,0
2022-12-16T04:05:12.936Z,0
2022-12-16T04:06:12.610Z,0
2022-12-16T04:07:15.468Z,0
2022-12-16T04:08:12.606Z,0
2022-12-16T04:09:12.614Z,0
2022-12-16T04:10:12.631Z,0
2022-12-16T04:11:12.622Z,0
2022-12-16T04:12:15.386Z,0
2022-12-16T04:13:13.088Z,0
2022-12-16T04:14:13.135Z,0
2022-12-16T04:15:12.660Z,0
2022-12-16T04:16:12.966Z,0
2022-12-16T04:17:12.649Z,0
2022-12-16T04:18:15.630Z,0
2022-12-16T04:19:13.192Z,0
2022-12-16T04:20:12.698Z,0
2022-12-16T04:21:13.140Z,0
2022-12-16T04:22:13.041Z,0
2022-12-16T04:23:15.435Z,0
2022-12-16T04:24:12.658Z,0
2022-12-16T04:25:12.921Z,0
2022-12-16T04:26:12.669Z,0
2022-12-16T04:27:20.179Z,0
2022-12-16T04:28:12.639Z,0
2022-12-16T04:29:15.412Z,0
2022-12-16T04:30:12.682Z,0
2022-12-16T04:31:15.788Z,0
2022-12-16T04:32:12.659Z,0
2022-12-16T04:33:12.675Z,0
2022-12-16T04:34:15.770Z,0
2022-12-16T04:35:13.696Z,0
2022-12-16T04:36:12.643Z,0
2022-12-16T04:37:12.563Z,0
2022-12-16T04:38:12.684Z,0
2022-12-16T04:39:12.346Z,0
2022-12-16T04:40:15.689Z,0
2022-12-16T04:41:12.967Z,0
2022-12-16T04:42:12.842Z,0
2022-12-16T04:43:13.264Z,0
2022-12-16T04:44:13.042Z,0
2022-12-16T04:45:18.920Z,0
2022-12-16T04:46:13.009Z,0
2022-12-16T04:47:12.705Z,0
2022-12-16T04:48:12.900Z,0
2022-12-16T04:49:12.692Z,0
2022-12-16T04:50:12.715Z,0
2022-12-16T04:51:15.450Z,0
2022-12-16T04:52:12.723Z,0
2022-12-16T04:53:12.980Z,0
2022-12-16T04:54:12.837Z,0
2022-12-16T04:55:13.809Z,0
2022-12-16T04:56:15.468Z,0
2022-12-16T04:57:12.688Z,0
2022-12-16T04:58:12.703Z,0
2022-12-16T04:59:12.787Z,0
2022-12-16T05:00:12.764Z,0
2022-12-16T05:01:12.911Z,0
2022-12-16T05:02:16.507Z,0
2022-12-16T05:03:13.009Z,0
2022-12-16T05:04:12.928Z,0
2022-12-16T05:05:12.763Z,0
2022-12-16T05:06:12.704Z,0
2022-12-16T05:07:15.497Z,0
2022-12-16T05:08:12.696Z,0
2022-12-16T05:09:12.800Z,0
2022-12-16T05:10:12.740Z,0
2022-12-16T05:11:12.733Z,0
2022-12-16T05:12:12.723Z,0
2022-12-16T05:13:13.156Z,0
2022-12-16T05:14:12.758Z,0
2022-12-16T05:15:12.831Z,0
2022-12-16T05:16:13.073Z,0
2022-12-16T05:17:13.106Z,0
2022-12-16T05:18:15.852Z,0
2022-12-16T05:19:12.738Z,0
2022-12-16T05:20:12.768Z,0
2022-12-16T05:21:12.743Z,0
2022-12-16T05:22:12.737Z,0
2022-12-16T05:23:12.759Z,0
2022-12-16T05:24:13.037Z,0
2022-12-16T05:25:12.840Z,0
2022-12-16T05:26:12.631Z,0
2022-12-16T05:27:12.753Z,0
2022-12-16T05:28:12.780Z,0
2022-12-16T05:29:12.608Z,0
2022-12-16T05:30:12.754Z,0
2022-12-16T05:31:13.084Z,0
2022-12-16T05:32:12.787Z,0
2022-12-16T05:33:13.196Z,0
2022-12-16T05:34:13.874Z,0
2022-12-16T05:35:12.792Z,0
2022-12-16T05:36:12.800Z,0
2022-12-16T05:37:12.780Z,0
2022-12-16T05:38:15.879Z,0
2022-12-16T05:39:12.759Z,0
2022-12-16T05:40:12.801Z,0
2022-12-16T05:41:12.847Z,0
2022-12-16T05:42:12.789Z,0
2022-12-16T05:43:19.523Z,0
2022-12-16T05:44:12.756Z,0
2022-12-16T05:45:15.930Z,0
2022-12-16T05:46:13.391Z,0
2022-12-16T05:47:12.820Z,0
2022-12-16T05:48:12.766Z,0
2022-12-16T05:49:12.788Z,0
2022-12-16T05:50:21.700Z,0
2022-12-16T05:51:12.781Z,0
2022-12-16T05:52:12.776Z,0
2022-12-16T05:53:12.844Z,0
2022-12-16T05:54:12.596Z,0
2022-12-16T05:55:12.787Z,0
2022-12-16T05:56:15.774Z,0
2022-12-16T05:57:12.838Z,0
2022-12-16T05:58:12.779Z,0
2022-12-16T05:59:12.811Z,0
2022-12-16T06:00:12.803Z,0
2022-12-16T06:01:15.856Z,0
2022-12-16T06:02:13.391Z,0
2022-12-16T06:03:13.541Z,0
2022-12-16T06:04:20.186Z,0
2022-12-16T06:05:13.796Z,0
2022-12-16T06:06:12.826Z,0
2022-12-16T06:07:12.801Z,0
2022-12-16T06:08:12.811Z,0
2022-12-16T06:09:12.785Z,0
2022-12-16T06:10:12.795Z,0
2022-12-16T06:11:13.091Z,0
2022-12-16T06:12:20.239Z,0
2022-12-16T06:13:12.816Z,0
2022-12-16T06:14:12.849Z,0
2022-12-16T06:15:12.976Z,0
2022-12-16T06:16:16.369Z,0
2022-12-16T06:17:12.852Z,0
2022-12-16T06:18:12.865Z,0
2022-12-16T06:19:12.840Z,0
2022-12-16T06:20:12.834Z,0
2022-12-16T06:21:12.826Z,0
2022-12-16T06:22:12.856Z,0
2022-12-16T06:23:18.803Z,0
2022-12-16T06:24:12.837Z,0
2022-12-16T06:25:12.820Z,0
2022-12-16T06:26:12.837Z,0
2022-12-16T06:27:12.831Z,0
2022-12-16T06:28:15.963Z,0
2022-12-16T06:29:13.873Z,0
2022-12-16T06:30:12.856Z,0
2022-12-16T06:31:13.658Z,0
2022-12-16T06:32:12.853Z,0
2022-12-16T06:33:13.000Z,0
2022-12-16T06:34:15.510Z,0
2022-12-16T06:35:12.850Z,0
2022-12-16T06:36:12.851Z,0
2022-12-16T06:37:12.829Z,0
2022-12-16T06:38:12.834Z,0
2022-12-16T06:39:15.673Z,0
2022-12-16T06:40:12.845Z,0
2022-12-16T06:41:12.730Z,0
2022-12-16T06:42:12.861Z,0
2022-12-16T06:43:12.832Z,4
2022-12-16T06:44:12.941Z,4
2022-12-16T06:45:15.721Z,0
2022-12-16T06:46:13.323Z,0
2022-12-16T06:47:12.920Z,4
2022-12-16T06:48:12.851Z,4
2022-12-16T06:49:12.857Z,0
2022-12-16T06:50:15.963Z,4
2022-12-16T06:51:12.895Z,4
2022-12-16T06:52:12.850Z,4
2022-12-16T06:53:13.053Z,4
2022-12-16T06:54:12.846Z,4
2022-12-16T06:55:12.873Z,8
2022-12-16T06:56:15.920Z,4
2022-12-16T06:57:12.893Z,8
2022-12-16T06:58:16.886Z,12
2022-12-16T06:59:12.855Z,8
2022-12-16T07:00:13.059Z,12
2022-12-16T07:01:16.082Z,12
2022-12-16T07:02:13.459Z,12
2022-12-16T07:03:13.690Z,16
2022-12-16T07:04:12.877Z,16
2022-12-16T07:05:13.546Z,16
2022-12-16T07:06:13.523Z,16
2022-12-16T07:07:21.798Z,20
2022-12-16T07:08:12.897Z,20
2022-12-16T07:09:12.893Z,24
2022-12-16T07:10:15.645Z,28
2022-12-16T07:11:23.091Z,32
2022-12-16T07:12:15.844Z,36
2022-12-16T07:13:13.169Z,36
2022-12-16T07:14:12.926Z,40
2022-12-16T07:15:12.941Z,44
2022-12-16T07:16:13.236Z,48
2022-12-16T07:17:19.705Z,48
2022-12-16T07:18:17.764Z,56
2022-12-16T07:19:12.936Z,52
2022-12-16T07:20:13.103Z,60
2022-12-16T07:21:12.975Z,60
2022-12-16T07:22:13.032Z,64
2022-12-16T07:23:24.083Z,64
2022-12-16T07:24:12.929Z,68
2022-12-16T07:25:13.045Z,68
2022-12-16T07:26:12.901Z,72
2022-12-16T07:27:12.956Z,72
2022-12-16T07:28:20.384Z,76
2022-12-16T07:29:15.710Z,76
2022-12-16T07:30:12.955Z,76
2022-12-16T07:31:13.149Z,80
2022-12-16T07:32:13.512Z,80
2022-12-16T07:33:12.966Z,84
2022-12-16T07:34:16.168Z,84
2022-12-16T07:35:12.949Z,84
2022-12-16T07:36:12.914Z,88
2022-12-16T07:37:12.968Z,84
2022-12-16T07:38:12.968Z,88
2022-12-16T07:39:13.193Z,92
2022-12-16T07:40:12.971Z,88
2022-12-16T07:41:12.950Z,88
2022-12-16T07:42:12.957Z,92
2022-12-16T07:43:12.956Z,92
2022-12-16T07:44:12.923Z,96
2022-12-16T07:45:15.767Z,96
2022-12-16T07:46:13.429Z,96
2022-12-16T07:47:13.020Z,100
2022-12-16T07:48:13.457Z,104
2022-12-16T07:49:12.965Z,104
2022-12-16T07:50:13.081Z,108
2022-12-16T07:51:13.309Z,108
2022-12-16T07:52:14.244Z,108
2022-12-16T07:53:13.187Z,112
2022-12-16T07:54:13.020Z,116
2022-12-16T07:55:13.060Z,120
2022-12-16T07:56:13.385Z,124
2022-12-16T07:57:12.991Z,124
2022-12-16T07:58:12.981Z,128
2022-12-16T07:59:12.981Z,132
2022-12-16T08:00:13.315Z,136
2022-12-16T08:01:16.716Z,136
2022-12-16T08:02:14.009Z,140
2022-12-16T08:03:13.697Z,144
2022-12-16T08:04:16.083Z,148
2022-12-16T08:05:13.328Z,152
2022-12-16T08:06:12.988Z,160
2022-12-16T08:07:13.581Z,172
2022-12-16T08:08:16.319Z,184
2022-12-16T08:09:15.735Z,192
2022-12-16T08:10:13.207Z,204
2022-12-16T08:11:15.583Z,220
2022-12-16T08:12:16.820Z,228
2022-12-16T08:13:18.471Z,240
2022-12-16T08:14:16.101Z,252
2022-12-16T08:15:13.423Z,260
2022-12-16T08:16:13.200Z,272
2022-12-16T08:17:16.417Z,280
2022-12-16T08:18:13.316Z,284
2022-12-16T08:19:17.879Z,292
2022-12-16T08:20:13.151Z,300
2022-12-16T08:21:13.114Z,304
2022-12-16T08:22:13.124Z,308
2022-12-16T08:23:15.806Z,308
2022-12-16T08:24:14.345Z,312
2022-12-16T08:25:13.077Z,312
2022-12-16T08:26:13.252Z,316
2022-12-16T08:27:13.011Z,320
2022-12-16T08:28:15.912Z,332
2022-12-16T08:29:50.249Z,344
2022-12-16T08:30:13.210Z,348
2022-12-16T08:31:13.508Z,356
2022-12-16T08:32:13.007Z,360
2022-12-16T08:33:25.105Z,372
2022-12-16T08:34:13.038Z,372
2022-12-16T08:35:14.069Z,372
2022-12-16T08:36:13.294Z,368
2022-12-16T08:37:16.111Z,368
2022-12-16T08:38:18.858Z,364
2022-12-16T08:39:18.438Z,356
2022-12-16T08:40:41.809Z,360
2022-12-16T08:41:13.167Z,360
2022-12-16T08:42:13.200Z,364
2022-12-16T08:43:17.929Z,372
2022-12-16T08:44:15.846Z,380
2022-12-16T08:45:13.650Z,392
2022-12-16T08:46:13.576Z,404
2022-12-16T08:47:13.509Z,420
2022-12-16T08:48:13.079Z,436
2022-12-16T08:49:13.407Z,448
2022-12-16T08:50:17.259Z,460
2022-12-16T08:51:13.043Z,468
2022-12-16T08:52:13.200Z,476
2022-12-16T08:53:13.115Z,484
2022-12-16T08:54:13.673Z,492
2022-12-16T08:55:13.096Z,500
2022-12-16T08:56:13.528Z,504
2022-12-16T08:57:13.049Z,508
2022-12-16T08:58:13.218Z,512
2022-12-16T08:59:13.259Z,520
2022-12-16T09:00:13.553Z,524
2022-12-16T09:01:17.909Z,528
2022-12-16T09:02:13.899Z,540
2022-12-16T09:03:14.266Z,548
2022-12-16T09:04:13.463Z,552
2022-12-16T09:05:13.065Z,564
2022-12-16T09:06:15.855Z,576
2022-12-16T09:07:13.425Z,584
2022-12-16T09:08:13.275Z,596
2022-12-16T09:09:13.414Z,608
2022-12-16T09:10:13.357Z,616
2022-12-16T09:11:13.100Z,620
2022-12-16T09:12:15.868Z,620
2022-12-16T09:13:13.191Z,612
2022-12-16T09:14:13.185Z,604
2022-12-16T09:15:13.374Z,592
2022-12-16T09:16:21.587Z,580
2022-12-16T09:17:16.099Z,568
2022-12-16T09:18:13.525Z,552
2022-12-16T09:19:13.335Z,536
2022-12-16T09:20:13.291Z,524
2022-12-16T09:21:13.224Z,528
2022-12-16T09:22:13.236Z,540
2022-12-16T09:23:16.488Z,568
2022-12-16T09:24:13.247Z,592
2022-12-16T09:25:13.117Z,628
2022-12-16T09:26:14.560Z,680
2022-12-16T09:27:13.233Z,748
2022-12-16T09:28:15.811Z,828
2022-12-16T09:29:13.129Z,900
2022-12-16T09:30:13.395Z,952
2022-12-16T09:31:13.398Z,980
2022-12-16T09:32:13.239Z,992
2022-12-16T09:33:13.149Z,992
2022-12-16T09:34:16.169Z,980
2022-12-16T09:35:20.214Z,972
2022-12-16T09:36:13.115Z,980
2022-12-16T09:37:16.112Z,996
2022-12-16T09:38:13.494Z,1024
2022-12-16T09:39:16.043Z,1052
2022-12-16T09:40:13.368Z,1080
2022-12-16T09:41:13.347Z,1108
2022-12-16T09:42:13.337Z,1132
2022-12-16T09:43:13.183Z,1156
2022-12-16T09:44:13.103Z,1172
2022-12-16T09:45:15.908Z,1184
2022-12-16T09:46:13.626Z,1196
2022-12-16T09:47:15.479Z,1204
2022-12-16T09:48:14.515Z,1196
2022-12-16T09:49:13.136Z,1180
2022-12-16T09:50:16.191Z,1172
2022-12-16T09:51:14.167Z,1196
2022-12-16T09:52:20.603Z,1228
2022-12-16T09:53:13.367Z,1248
2022-12-16T09:54:13.527Z,1264
2022-12-16T09:55:13.217Z,1272
2022-12-16T09:56:16.249Z,1272
2022-12-16T09:57:13.461Z,1264
2022-12-16T09:58:13.173Z,1256
2022-12-16T09:59:13.213Z,1248
2022-12-16T10:00:13.199Z,1248
2022-12-16T10:01:16.616Z,1248
2022-12-16T10:02:14.144Z,1240
2022-12-16T10:03:14.858Z,1232
2022-12-16T10:04:13.603Z,1228
2022-12-16T10:05:13.355Z,1228
2022-12-16T10:06:13.163Z,1232
2022-12-16T10:07:13.166Z,1240
2022-12-16T10:08:19.160Z,1276
2022-12-16T10:09:13.462Z,1308
2022-12-16T10:10:13.379Z,1304
2022-12-16T10:11:13.343Z,1248
2022-12-16T10:12:16.032Z,1164
2022-12-16T10:13:13.246Z,1096
2022-12-16T10:14:19.671Z,1040
2022-12-16T10:15:13.265Z,1004
2022-12-16T10:16:14.588Z,984
2022-12-16T10:17:13.332Z,952
2022-12-16T10:18:13.629Z,904
2022-12-16T10:19:13.269Z,844
2022-12-16T10:20:16.486Z,784
2022-12-16T10:21:13.407Z,748
2022-12-16T10:22:13.361Z,724
2022-12-16T10:23:13.699Z,704
2022-12-16T10:24:16.334Z,692
2022-12-16T10:25:13.236Z,696
2022-12-16T10:26:13.325Z,692
2022-12-16T10:27:13.358Z,688
2022-12-16T10:28:13.384Z,672
2022-12-16T10:29:13.215Z,660
2022-12-16T10:30:13.373Z,648
2022-12-16T10:31:13.577Z,644
2022-12-16T10:32:13.300Z,656
2022-12-16T10:33:13.391Z,680
2022-12-16T10:34:13.572Z,712
2022-12-16T10:35:13.258Z,756
2022-12-16T10:36:13.620Z,812
2022-12-16T10:37:25.234Z,872
2022-12-16T10:38:13.362Z,892
2022-12-16T10:39:16.206Z,916
2022-12-16T10:40:13.415Z,932
2022-12-16T10:41:13.395Z,944
2022-12-16T10:42:13.225Z,964
2022-12-16T10:43:13.378Z,980
2022-12-16T10:44:16.431Z,976
2022-12-16T10:45:13.487Z,960
2022-12-16T10:46:13.679Z,944
2022-12-16T10:47:13.317Z,940
2022-12-16T10:48:14.275Z,928
2022-12-16T10:49:13.637Z,900
2022-12-16T10:50:16.948Z,860
2022-12-16T10:51:13.567Z,820
2022-12-16T10:52:16.194Z,772
2022-12-16T10:53:16.026Z,724
2022-12-16T10:54:13.326Z,680
2022-12-16T10:55:16.065Z,656
2022-12-16T10:56:13.281Z,668
2022-12-16T10:57:13.297Z,704
2022-12-16T10:58:13.294Z,764
2022-12-16T10:59:13.584Z,820
2022-12-16T11:00:13.408Z,832
2022-12-16T11:01:13.335Z,796
2022-12-16T11:02:13.940Z,752
2022-12-16T11:03:14.474Z,736
2022-12-16T11:04:13.644Z,748
2022-12-16T11:05:13.279Z,788
2022-12-16T11:06:16.041Z,800
2022-12-16T11:07:13.373Z,760
2022-12-16T11:08:13.581Z,724
2022-12-16T11:09:13.366Z,688
2022-12-16T11:10:13.704Z,612
2022-12-16T11:11:13.527Z,544
2022-12-16T11:12:13.536Z,524
2022-12-16T11:13:13.261Z,528
2022-12-16T11:14:13.434Z,536
2022-12-16T11:15:41.779Z,548
2022-12-16T11:16:13.579Z,556
2022-12-16T11:17:16.061Z,600
2022-12-16T11:18:13.690Z,588
2022-12-16T11:19:13.595Z,524
2022-12-16T11:20:13.397Z,500
2022-12-16T11:21:20.429Z,548
2022-12-16T11:22:13.423Z,580
2022-12-16T11:23:13.447Z,580
2022-12-16T11:24:13.364Z,580
2022-12-16T11:25:13.499Z,580
2022-12-16T11:26:13.410Z,576
2022-12-16T11:27:13.429Z,552
2022-12-16T11:28:16.407Z,528
2022-12-16T11:29:13.339Z,500
2022-12-16T11:30:13.515Z,480
2022-12-16T11:31:14.236Z,476
2022-12-16T11:32:13.908Z,476
2022-12-16T11:33:16.408Z,480
2022-12-16T11:34:13.493Z,492
2022-12-16T11:35:13.441Z,500
2022-12-16T11:36:13.310Z,508
2022-12-16T11:37:24.035Z,508
2022-12-16T11:38:14.306Z,512
2022-12-16T11:39:16.218Z,468
2022-12-16T11:40:13.364Z,512
2022-12-16T11:41:14.351Z,504
2022-12-16T11:42:14.350Z,484
2022-12-16T11:43:22.016Z,476
2022-12-16T11:44:14.100Z,464
2022-12-16T11:45:13.344Z,448
2022-12-16T11:46:13.572Z,432
2022-12-16T11:47:13.439Z,416
2022-12-16T11:48:16.063Z,408
2022-12-16T11:49:13.456Z,404
2022-12-16T11:50:16.093Z,400
2022-12-16T11:51:13.477Z,400
2022-12-16T11:52:45.387Z,396
2022-12-16T11:53:13.361Z,400
2022-12-16T11:54:13.617Z,408
2022-12-16T11:55:16.322Z,424
2022-12-16T11:56:24.144Z,440
2022-12-16T11:57:13.524Z,456
2022-12-16T11:58:13.579Z,472
2022-12-16T11:59:13.536Z,484
2022-12-16T12:00:14.397Z,492
2022-12-16T12:01:16.216Z,500
2022-12-16T12:02:13.655Z,508
2022-12-16T12:03:14.258Z,520
2022-12-16T12:04:13.717Z,544
2022-12-16T12:05:16.407Z,576
2022-12-16T12:06:16.420Z,596
2022-12-16T12:07:13.484Z,608
2022-12-16T12:08:13.445Z,624
2022-12-16T12:09:13.391Z,628
2022-12-16T12:10:13.343Z,636
2022-12-16T12:11:13.540Z,652
2022-12-16T12:12:16.429Z,672
2022-12-16T12:13:13.663Z,664
2022-12-16T12:14:13.825Z,632
2022-12-16T12:15:13.514Z,584
2022-12-16T12:16:13.662Z,544
2022-12-16T12:17:16.447Z,520
2022-12-16T12:18:13.492Z,492
2022-12-16T12:19:13.674Z,472
2022-12-16T12:20:14.398Z,468
2022-12-16T12:21:13.380Z,472
2022-12-16T12:22:13.415Z,492
2022-12-16T12:23:16.172Z,528
2022-12-16T12:24:13.507Z,536
2022-12-16T12:25:13.393Z,524
2022-12-16T12:26:13.478Z,512
2022-12-16T12:27:13.382Z,504
2022-12-16T12:28:16.079Z,492
2022-12-16T12:29:13.407Z,476
2022-12-16T12:30:21.238Z,464
2022-12-16T12:31:13.465Z,448
2022-12-16T12:32:16.306Z,436
2022-12-16T12:33:13.430Z,432
2022-12-16T12:34:13.478Z,424
2022-12-16T12:35:13.638Z,416
2022-12-16T12:36:13.685Z,420
2022-12-16T12:37:13.485Z,420
2022-12-16T12:38:13.614Z,416
2022-12-16T12:39:14.695Z,408
2022-12-16T12:40:13.738Z,404
2022-12-16T12:41:13.241Z,412
2022-12-16T12:42:13.593Z,428
2022-12-16T12:43:13.484Z,428
2022-12-16T12:44:13.515Z,416
2022-12-16T12:45:13.419Z,412
2022-12-16T12:46:13.703Z,404
2022-12-16T12:47:13.754Z,396
2022-12-16T12:48:13.512Z,392
2022-12-16T12:49:13.306Z,388
2022-12-16T12:50:13.466Z,392
2022-12-16T12:51:13.474Z,392
2022-12-16T12:52:13.586Z,396
2022-12-16T12:53:13.422Z,396
2022-12-16T12:54:13.467Z,392
2022-12-16T12:55:13.530Z,392
2022-12-16T12:56:16.357Z,392
2022-12-16T12:57:13.425Z,392
2022-12-16T12:58:13.595Z,392
2022-12-16T12:59:14.512Z,392
2022-12-16T13:00:13.648Z,400
2022-12-16T13:01:13.787Z,420
2022-12-16T13:02:14.137Z,448
2022-12-16T13:03:14.259Z,480
2022-12-16T13:04:13.800Z,500
2022-12-16T13:05:13.601Z,512
2022-12-16T13:06:16.531Z,520
2022-12-16T13:07:16.610Z,524
2022-12-16T13:08:13.343Z,504
2022-12-16T13:09:13.818Z,488
2022-12-16T13:10:13.567Z,468
2022-12-16T13:11:16.460Z,480
2022-12-16T13:12:14.112Z,500
2022-12-16T13:13:14.499Z,512
2022-12-16T13:14:13.487Z,520
2022-12-16T13:15:13.557Z,528
2022-12-16T13:16:14.676Z,532
2022-12-16T13:17:21.762Z,516
2022-12-16T13:18:13.460Z,492
2022-12-16T13:19:16.815Z,472
2022-12-16T13:20:14.365Z,460
2022-12-16T13:21:13.701Z,444
2022-12-16T13:22:16.524Z,436
2022-12-16T13:23:13.517Z,444
2022-12-16T13:24:13.478Z,444
2022-12-16T13:25:13.473Z,432
2022-12-16T13:26:13.363Z,424
2022-12-16T13:27:13.351Z,420
2022-12-16T13:28:13.470Z,404
2022-12-16T13:29:13.465Z,400
2022-12-16T13:30:13.391Z,420
2022-12-16T13:31:13.668Z,432
2022-12-16T13:32:13.769Z,428
2022-12-16T13:33:16.620Z,420
2022-12-16T13:34:13.489Z,408
2022-12-16T13:35:13.502Z,400
2022-12-16T13:36:13.489Z,404
2022-12-16T13:37:15.595Z,412
2022-12-16T13:38:13.565Z,436
2022-12-16T13:39:13.600Z,448
2022-12-16T13:40:13.483Z,452
2022-12-16T13:41:13.501Z,448
2022-12-16T13:42:13.510Z,420
2022-12-16T13:43:13.566Z,400
2022-12-16T13:44:16.305Z,376
2022-12-16T13:45:13.511Z,360
2022-12-16T13:46:13.801Z,340
2022-12-16T13:47:13.352Z,328
2022-12-16T13:48:13.512Z,320
2022-12-16T13:49:13.513Z,320
2022-12-16T13:50:13.766Z,320
2022-12-16T13:51:21.041Z,328
2022-12-16T13:52:14.542Z,340
2022-12-16T13:53:13.541Z,344
2022-12-16T13:54:13.573Z,352
2022-12-16T13:55:25.050Z,356
2022-12-16T13:56:13.522Z,360
2022-12-16T13:57:13.541Z,364
2022-12-16T13:58:14.425Z,380
2022-12-16T13:59:13.766Z,392
2022-12-16T14:00:13.754Z,392
2022-12-16T14:01:14.006Z,384
2022-12-16T14:02:13.826Z,376
2022-12-16T14:03:13.936Z,380
2022-12-16T14:04:13.519Z,376
2022-12-16T14:05:13.688Z,352
2022-12-16T14:06:16.724Z,336
2022-12-16T14:07:13.537Z,324
2022-12-16T14:08:13.535Z,312
2022-12-16T14:09:13.560Z,300
2022-12-16T14:10:13.656Z,276
2022-12-16T14:11:16.475Z,256
2022-12-16T14:12:13.234Z,264
2022-12-16T14:13:13.561Z,260
2022-12-16T14:14:13.577Z,236
2022-12-16T14:15:13.677Z,216
2022-12-16T14:16:13.820Z,212